Página principal
METAR-TAF:

METAR-TAF

Aeroportos :

Mekoryuk, Alasca, Estados Unidos

latitude: 60-22N, longitude: 166-16W, altura: 15 m

Observação actual do tempo

O boletim foi feito há 26 minutos, às 16:47 UTC
Vento calmo
Temperatura 7°C
Humidade 93%
Pressão 1012 hPa
Visibilidade: 3.2 km
Encobertoa uma altura de 1200 ft
neblina

METAR: PAMY 191647Z AUTO 00000KT 2SM BR OVC012 07/06 A2987 RMK AO2 RAB19E35 P0000 $

Hora: 09:13 (17:13 UTC)


TAF: em falta

Observações e previsões do tempo de mais de 4000 aeroportos (mensagens METAR e TAF).

As estações disponíveis são os pontos amarelos e vermelhos sobre o mapa.

Mova o rato sobre o mapa para ver o nome da estação.

Depois clique no ponto para visualizar as observações e previsões meteorológicas.

Para alterar o mapa : clique nos botões verdes com uma cruz preta para aumentar o zoom; no botão verde com uma pitada de zoom; ou nas setas verdes para mapas adjacentes.


METAR-TAF: